sensor_id;sensor_type;location;lat;lon;timestamp;temperature;humidity
4811;DHT22;2419;51.276;6.472;2023-09-07T00:00:32;17.60;99.90
4811;DHT22;2419;51.276;6.472;2023-09-07T00:03:02;17.70;99.90
4811;DHT22;2419;51.276;6.472;2023-09-07T00:05:31;17.50;99.90
4811;DHT22;2419;51.276;6.472;2023-09-07T00:07:59;17.50;99.90
4811;DHT22;2419;51.276;6.472;2023-09-07T00:10:28;17.40;99.90
4811;DHT22;2419;51.276;6.472;2023-09-07T00:12:56;17.40;99.90
4811;DHT22;2419;51.276;6.472;2023-09-07T00:15:24;17.40;99.90
4811;DHT22;2419;51.276;6.472;2023-09-07T00:17:53;17.40;99.90
4811;DHT22;2419;51.276;6.472;2023-09-07T00:20:23;17.40;99.90
4811;DHT22;2419;51.276;6.472;2023-09-07T00:22:51;17.40;99.90
4811;DHT22;2419;51.276;6.472;2023-09-07T00:25:19;17.40;99.90
4811;DHT22;2419;51.276;6.472;2023-09-07T00:27:48;17.30;99.90
4811;DHT22;2419;51.276;6.472;2023-09-07T00:30:16;17.30;99.90
4811;DHT22;2419;51.276;6.472;2023-09-07T00:32:44;17.40;99.90
4811;DHT22;2419;51.276;6.472;2023-09-07T00:35:12;17.50;99.90
4811;DHT22;2419;51.276;6.472;2023-09-07T00:37:41;17.40;99.90
4811;DHT22;2419;51.276;6.472;2023-09-07T00:40:10;17.40;99.90
4811;DHT22;2419;51.276;6.472;2023-09-07T00:42:38;17.40;99.90
4811;DHT22;2419;51.276;6.472;2023-09-07T00:45:07;17.40;99.90
4811;DHT22;2419;51.276;6.472;2023-09-07T00:47:35;17.40;99.90
4811;DHT22;2419;51.276;6.472;2023-09-07T00:50:05;17.40;99.90
4811;DHT22;2419;51.276;6.472;2023-09-07T00:52:34;17.40;99.90
4811;DHT22;2419;51.276;6.472;2023-09-07T00:55:09;17.40;99.90
4811;DHT22;2419;51.276;6.472;2023-09-07T00:57:37;17.50;99.90
4811;DHT22;2419;51.276;6.472;2023-09-07T01:00:10;17.60;99.90
4811;DHT22;2419;51.276;6.472;2023-09-07T01:02:38;17.60;99.90
4811;DHT22;2419;51.276;6.472;2023-09-07T01:05:09;17.60;99.90
4811;DHT22;2419;51.276;6.472;2023-09-07T01:07:40;17.70;99.90
4811;DHT22;2419;51.276;6.472;2023-09-07T01:10:12;17.60;99.90
4811;DHT22;2419;51.276;6.472;2023-09-07T01:12:40;17.50;99.90
4811;DHT22;2419;51.276;6.472;2023-09-07T01:15:09;17.50;99.90
4811;DHT22;2419;51.276;6.472;2023-09-07T01:17:37;17.50;99.90
4811;DHT22;2419;51.276;6.472;2023-09-07T01:20:08;17.50;99.90
4811;DHT22;2419;51.276;6.472;2023-09-07T01:22:39;17.40;99.90
4811;DHT22;2419;51.276;6.472;2023-09-07T01:25:08;17.40;99.90
4811;DHT22;2419;51.276;6.472;2023-09-07T01:27:37;17.40;99.90
4811;DHT22;2419;51.276;6.472;2023-09-07T01:30:07;17.40;99.90
4811;DHT22;2419;51.276;6.472;2023-09-07T01:32:36;17.40;99.90
4811;DHT22;2419;51.276;6.472;2023-09-07T01:35:05;17.50;99.90
4811;DHT22;2419;51.276;6.472;2023-09-07T01:37:34;17.60;99.90
4811;DHT22;2419;51.276;6.472;2023-09-07T01:40:06;17.60;99.90
4811;DHT22;2419;51.276;6.472;2023-09-07T01:42:36;17.70;99.90
4811;DHT22;2419;51.276;6.472;2023-09-07T01:45:05;17.80;99.90
4811;DHT22;2419;51.276;6.472;2023-09-07T01:47:33;17.80;99.90
4811;DHT22;2419;51.276;6.472;2023-09-07T01:50:01;17.80;99.90
4811;DHT22;2419;51.276;6.472;2023-09-07T01:52:30;17.70;99.90
4811;DHT22;2419;51.276;6.472;2023-09-07T01:54:58;17.70;99.90
4811;DHT22;2419;51.276;6.472;2023-09-07T01:57:27;17.70;99.90
4811;DHT22;2419;51.276;6.472;2023-09-07T01:59:56;17.60;99.90
4811;DHT22;2419;51.276;6.472;2023-09-07T02:02:24;17.60;99.90
4811;DHT22;2419;51.276;6.472;2023-09-07T02:04:52;17.50;99.90
4811;DHT22;2419;51.276;6.472;2023-09-07T02:07:20;17.40;99.90
4811;DHT22;2419;51.276;6.472;2023-09-07T02:09:48;17.40;99.90
4811;DHT22;2419;51.276;6.472;2023-09-07T02:12:16;17.30;99.90
4811;DHT22;2419;51.276;6.472;2023-09-07T02:14:45;17.20;99.90
4811;DHT22;2419;51.276;6.472;2023-09-07T02:17:13;17.20;99.90
4811;DHT22;2419;51.276;6.472;2023-09-07T02:19:45;17.20;99.90
4811;DHT22;2419;51.276;6.472;2023-09-07T02:22:13;17.20;99.90
4811;DHT22;2419;51.276;6.472;2023-09-07T02:24:41;17.20;99.90
4811;DHT22;2419;51.276;6.472;2023-09-07T02:27:09;17.30;99.90
4811;DHT22;2419;51.276;6.472;2023-09-07T02:29:37;17.30;99.90
4811;DHT22;2419;51.276;6.472;2023-09-07T02:32:07;17.30;99.90
4811;DHT22;2419;51.276;6.472;2023-09-07T02:34:35;17.30;99.90
4811;DHT22;2419;51.276;6.472;2023-09-07T02:37:04;17.30;99.90
4811;DHT22;2419;51.276;6.472;2023-09-07T02:39:32;17.20;99.90
4811;DHT22;2419;51.276;6.472;2023-09-07T02:42:00;17.20;99.90
4811;DHT22;2419;51.276;6.472;2023-09-07T02:44:29;17.10;99.90
4811;DHT22;2419;51.276;6.472;2023-09-07T02:46:57;17.10;99.90
4811;DHT22;2419;51.276;6.472;2023-09-07T02:49:27;17.10;99.90
4811;DHT22;2419;51.276;6.472;2023-09-07T02:51:55;16.90;99.90
4811;DHT22;2419;51.276;6.472;2023-09-07T02:54:23;16.90;99.90
4811;DHT22;2419;51.276;6.472;2023-09-07T02:56:52;17.00;99.90
4811;DHT22;2419;51.276;6.472;2023-09-07T02:59:20;16.90;99.90
4811;DHT22;2419;51.276;6.472;2023-09-07T03:01:48;16.80;99.90
4811;DHT22;2419;51.276;6.472;2023-09-07T03:04:16;16.90;99.90
4811;DHT22;2419;51.276;6.472;2023-09-07T03:06:46;16.90;99.90
4811;DHT22;2419;51.276;6.472;2023-09-07T03:09:14;16.90;99.90
4811;DHT22;2419;51.276;6.472;2023-09-07T03:11:42;16.80;99.90
4811;DHT22;2419;51.276;6.472;2023-09-07T03:14:10;16.70;99.90
4811;DHT22;2419;51.276;6.472;2023-09-07T03:16:38;16.70;99.90
4811;DHT22;2419;51.276;6.472;2023-09-07T03:19:08;16.70;99.90
4811;DHT22;2419;51.276;6.472;2023-09-07T03:21:36;16.60;99.90
4811;DHT22;2419;51.276;6.472;2023-09-07T03:24:06;16.50;99.90
4811;DHT22;2419;51.276;6.472;2023-09-07T03:26:35;16.40;99.90
4811;DHT22;2419;51.276;6.472;2023-09-07T03:29:03;16.40;99.90
4811;DHT22;2419;51.276;6.472;2023-09-07T03:31:31;16.40;99.90
4811;DHT22;2419;51.276;6.472;2023-09-07T03:33:59;16.40;99.90
4811;DHT22;2419;51.276;6.472;2023-09-07T03:36:27;16.40;99.90
4811;DHT22;2419;51.276;6.472;2023-09-07T03:38:55;16.30;99.90
4811;DHT22;2419;51.276;6.472;2023-09-07T03:41:25;16.10;99.90
4811;DHT22;2419;51.276;6.472;2023-09-07T03:43:58;16.10;99.90
4811;DHT22;2419;51.276;6.472;2023-09-07T03:46:28;16.10;99.90
4811;DHT22;2419;51.276;6.472;2023-09-07T03:48:56;16.20;99.90
4811;DHT22;2419;51.276;6.472;2023-09-07T03:51:24;16.20;99.90
4811;DHT22;2419;51.276;6.472;2023-09-07T03:53:52;16.20;99.90
4811;DHT22;2419;51.276;6.472;2023-09-07T03:56:20;16.20;99.90
4811;DHT22;2419;51.276;6.472;2023-09-07T03:58:50;16.20;99.90
4811;DHT22;2419;51.276;6.472;2023-09-07T04:01:18;16.20;99.90
4811;DHT22;2419;51.276;6.472;2023-09-07T04:03:46;16.20;99.90
4811;DHT22;2419;51.276;6.472;2023-09-07T04:06:14;16.10;99.90
4811;DHT22;2419;51.276;6.472;2023-09-07T04:08:42;16.10;99.90
4811;DHT22;2419;51.276;6.472;2023-09-07T04:11:11;15.90;99.90
4811;DHT22;2419;51.276;6.472;2023-09-07T04:13:40;16.00;99.90
4811;DHT22;2419;51.276;6.472;2023-09-07T04:16:10;15.90;99.90
4811;DHT22;2419;51.276;6.472;2023-09-07T04:18:38;15.90;99.90
4811;DHT22;2419;51.276;6.472;2023-09-07T04:21:07;15.90;99.90
4811;DHT22;2419;51.276;6.472;2023-09-07T04:23:35;16.00;99.90
4811;DHT22;2419;51.276;6.472;2023-09-07T04:26:09;15.90;99.90
4811;DHT22;2419;51.276;6.472;2023-09-07T04:28:38;15.90;99.90
4811;DHT22;2419;51.276;6.472;2023-09-07T04:31:07;16.00;99.90
4811;DHT22;2419;51.276;6.472;2023-09-07T04:33:37;15.90;99.90
4811;DHT22;2419;51.276;6.472;2023-09-07T04:36:09;16.00;99.90
4811;DHT22;2419;51.276;6.472;2023-09-07T04:38:38;15.90;99.90
4811;DHT22;2419;51.276;6.472;2023-09-07T04:41:08;15.80;99.90
4811;DHT22;2419;51.276;6.472;2023-09-07T04:43:38;15.70;99.90
4811;DHT22;2419;51.276;6.472;2023-09-07T04:46:07;15.60;99.90
4811;DHT22;2419;51.276;6.472;2023-09-07T04:48:37;15.60;99.90
4811;DHT22;2419;51.276;6.472;2023-09-07T04:51:06;15.50;99.90
4811;DHT22;2419;51.276;6.472;2023-09-07T04:53:36;15.50;99.90
4811;DHT22;2419;51.276;6.472;2023-09-07T04:56:06;15.40;99.90
4811;DHT22;2419;51.276;6.472;2023-09-07T04:58:35;15.50;99.90
4811;DHT22;2419;51.276;6.472;2023-09-07T05:01:03;15.50;99.90
4811;DHT22;2419;51.276;6.472;2023-09-07T05:03:32;15.60;99.90
4811;DHT22;2419;51.276;6.472;2023-09-07T05:06:02;15.50;99.90
4811;DHT22;2419;51.276;6.472;2023-09-07T05:08:31;15.50;99.90
4811;DHT22;2419;51.276;6.472;2023-09-07T05:11:01;15.50;99.90
4811;DHT22;2419;51.276;6.472;2023-09-07T05:13:30;15.60;99.90
4811;DHT22;2419;51.276;6.472;2023-09-07T05:16:00;15.70;99.90
4811;DHT22;2419;51.276;6.472;2023-09-07T05:18:29;15.70;99.90
4811;DHT22;2419;51.276;6.472;2023-09-07T05:20:57;15.70;99.90
4811;DHT22;2419;51.276;6.472;2023-09-07T05:23:27;15.60;99.90
4811;DHT22;2419;51.276;6.472;2023-09-07T05:25:55;15.50;99.90
4811;DHT22;2419;51.276;6.472;2023-09-07T05:28:25;15.60;99.90
4811;DHT22;2419;51.276;6.472;2023-09-07T05:30:55;16.50;99.90
4811;DHT22;2419;51.276;6.472;2023-09-07T05:33:24;17.20;99.90
4811;DHT22;2419;51.276;6.472;2023-09-07T05:35:52;17.90;99.90
4811;DHT22;2419;51.276;6.472;2023-09-07T05:38:20;18.50;99.90
4811;DHT22;2419;51.276;6.472;2023-09-07T05:40:59;18.70;99.90
4811;DHT22;2419;51.276;6.472;2023-09-07T05:43:32;18.80;99.90
4811;DHT22;2419;51.276;6.472;2023-09-07T05:46:00;18.00;99.90
4811;DHT22;2419;51.276;6.472;2023-09-07T05:48:28;17.70;99.90
4811;DHT22;2419;51.276;6.472;2023-09-07T05:50:57;17.60;99.90
4811;DHT22;2419;51.276;6.472;2023-09-07T05:53:25;17.40;99.90
4811;DHT22;2419;51.276;6.472;2023-09-07T05:55:54;17.20;99.90
4811;DHT22;2419;51.276;6.472;2023-09-07T05:58:23;17.10;99.90
4811;DHT22;2419;51.276;6.472;2023-09-07T06:00:51;17.10;99.90
4811;DHT22;2419;51.276;6.472;2023-09-07T06:03:19;17.20;99.90
4811;DHT22;2419;51.276;6.472;2023-09-07T06:05:47;17.20;99.90
4811;DHT22;2419;51.276;6.472;2023-09-07T06:08:16;17.30;99.90
4811;DHT22;2419;51.276;6.472;2023-09-07T06:10:44;17.40;99.90
4811;DHT22;2419;51.276;6.472;2023-09-07T06:13:15;17.40;99.90
4811;DHT22;2419;51.276;6.472;2023-09-07T06:15:43;17.50;99.90
4811;DHT22;2419;51.276;6.472;2023-09-07T06:18:11;17.50;99.90
4811;DHT22;2419;51.276;6.472;2023-09-07T06:20:39;17.60;99.90
4811;DHT22;2419;51.276;6.472;2023-09-07T06:23:08;17.60;99.90
4811;DHT22;2419;51.276;6.472;2023-09-07T06:25:36;17.70;99.90
4811;DHT22;2419;51.276;6.472;2023-09-07T06:28:05;18.00;99.90
4811;DHT22;2419;51.276;6.472;2023-09-07T06:30:34;18.20;99.90
4811;DHT22;2419;51.276;6.472;2023-09-07T06:33:03;18.20;99.90
4811;DHT22;2419;51.276;6.472;2023-09-07T06:35:31;18.40;99.90
4811;DHT22;2419;51.276;6.472;2023-09-07T06:37:59;18.50;99.90
4811;DHT22;2419;51.276;6.472;2023-09-07T06:40:27;18.70;99.90
4811;DHT22;2419;51.276;6.472;2023-09-07T06:42:57;18.90;99.90
4811;DHT22;2419;51.276;6.472;2023-09-07T06:45:26;19.00;99.90
4811;DHT22;2419;51.276;6.472;2023-09-07T06:47:56;19.30;99.90
4811;DHT22;2419;51.276;6.472;2023-09-07T06:50:25;19.30;99.90
4811;DHT22;2419;51.276;6.472;2023-09-07T06:52:53;19.40;99.90
4811;DHT22;2419;51.276;6.472;2023-09-07T06:55:22;19.50;99.90
4811;DHT22;2419;51.276;6.472;2023-09-07T06:57:50;19.60;99.90
4811;DHT22;2419;51.276;6.472;2023-09-07T07:00:18;19.60;99.90
4811;DHT22;2419;51.276;6.472;2023-09-07T07:02:46;19.60;99.90
4811;DHT22;2419;51.276;6.472;2023-09-07T07:05:16;19.70;99.90
4811;DHT22;2419;51.276;6.472;2023-09-07T07:07:44;19.70;99.90
4811;DHT22;2419;51.276;6.472;2023-09-07T07:10:13;19.80;99.90
4811;DHT22;2419;51.276;6.472;2023-09-07T07:12:41;19.80;99.90
4811;DHT22;2419;51.276;6.472;2023-09-07T07:15:09;19.90;99.90
4811;DHT22;2419;51.276;6.472;2023-09-07T07:17:38;20.00;99.90
4811;DHT22;2419;51.276;6.472;2023-09-07T07:20:08;20.10;99.90
4811;DHT22;2419;51.276;6.472;2023-09-07T07:22:38;20.30;99.90
4811;DHT22;2419;51.276;6.472;2023-09-07T07:25:06;20.70;99.90
4811;DHT22;2419;51.276;6.472;2023-09-07T07:27:34;20.90;99.90
4811;DHT22;2419;51.276;6.472;2023-09-07T07:30:03;20.80;99.90
4811;DHT22;2419;51.276;6.472;2023-09-07T07:32:32;20.80;99.90
4811;DHT22;2419;51.276;6.472;2023-09-07T07:35:00;20.70;99.90
4811;DHT22;2419;51.276;6.472;2023-09-07T07:37:28;20.80;99.90
4811;DHT22;2419;51.276;6.472;2023-09-07T07:39:58;20.70;99.90
4811;DHT22;2419;51.276;6.472;2023-09-07T07:42:27;20.70;99.90
4811;DHT22;2419;51.276;6.472;2023-09-07T07:44:55;20.80;99.90
4811;DHT22;2419;51.276;6.472;2023-09-07T07:47:23;20.90;99.90
4811;DHT22;2419;51.276;6.472;2023-09-07T07:49:53;21.00;99.90
4811;DHT22;2419;51.276;6.472;2023-09-07T07:52:21;21.10;99.90
4811;DHT22;2419;51.276;6.472;2023-09-07T07:54:51;21.20;99.90
4811;DHT22;2419;51.276;6.472;2023-09-07T07:57:21;21.30;99.90
4811;DHT22;2419;51.276;6.472;2023-09-07T07:59:49;21.40;99.90
4811;DHT22;2419;51.276;6.472;2023-09-07T08:02:17;21.60;99.90
4811;DHT22;2419;51.276;6.472;2023-09-07T08:04:45;21.60;99.90
4811;DHT22;2419;51.276;6.472;2023-09-07T08:07:14;21.70;99.90
4811;DHT22;2419;51.276;6.472;2023-09-07T08:09:43;21.70;99.90
4811;DHT22;2419;51.276;6.472;2023-09-07T08:12:11;21.80;99.90
4811;DHT22;2419;51.276;6.472;2023-09-07T08:14:40;21.90;99.90
4811;DHT22;2419;51.276;6.472;2023-09-07T08:17:09;22.00;99.90
4811;DHT22;2419;51.276;6.472;2023-09-07T08:19:38;22.10;99.90
4811;DHT22;2419;51.276;6.472;2023-09-07T08:22:06;22.20;99.90
4811;DHT22;2419;51.276;6.472;2023-09-07T08:24:35;22.30;99.90
4811;DHT22;2419;51.276;6.472;2023-09-07T08:27:04;22.40;99.90
4811;DHT22;2419;51.276;6.472;2023-09-07T08:29:32;22.50;99.90
4811;DHT22;2419;51.276;6.472;2023-09-07T08:32:01;22.60;99.90
4811;DHT22;2419;51.276;6.472;2023-09-07T08:34:31;22.80;99.90
4811;DHT22;2419;51.276;6.472;2023-09-07T08:36:59;22.90;99.90
4811;DHT22;2419;51.276;6.472;2023-09-07T08:39:27;23.00;99.90
4811;DHT22;2419;51.276;6.472;2023-09-07T08:41:56;23.10;99.90
4811;DHT22;2419;51.276;6.472;2023-09-07T08:44:29;23.10;99.90
4811;DHT22;2419;51.276;6.472;2023-09-07T08:47:00;23.30;99.90
4811;DHT22;2419;51.276;6.472;2023-09-07T08:49:30;23.40;99.90
4811;DHT22;2419;51.276;6.472;2023-09-07T08:52:02;23.60;99.90
4811;DHT22;2419;51.276;6.472;2023-09-07T08:54:31;23.70;99.90
4811;DHT22;2419;51.276;6.472;2023-09-07T08:57:02;23.60;99.90
4811;DHT22;2419;51.276;6.472;2023-09-07T08:59:31;23.70;99.90
4811;DHT22;2419;51.276;6.472;2023-09-07T09:02:01;23.90;99.90
4811;DHT22;2419;51.276;6.472;2023-09-07T09:04:31;24.00;99.90
4811;DHT22;2419;51.276;6.472;2023-09-07T09:07:00;24.10;99.90
4811;DHT22;2419;51.276;6.472;2023-09-07T09:09:30;24.30;99.90
4811;DHT22;2419;51.276;6.472;2023-09-07T09:12:06;24.40;99.90
4811;DHT22;2419;51.276;6.472;2023-09-07T09:14:35;24.50;99.90
4811;DHT22;2419;51.276;6.472;2023-09-07T09:17:04;24.60;99.90
4811;DHT22;2419;51.276;6.472;2023-09-07T09:19:33;24.70;99.90
4811;DHT22;2419;51.276;6.472;2023-09-07T09:22:01;24.80;99.90
4811;DHT22;2419;51.276;6.472;2023-09-07T09:24:32;25.00;99.90
4811;DHT22;2419;51.276;6.472;2023-09-07T09:27:01;25.00;99.90
4811;DHT22;2419;51.276;6.472;2023-09-07T09:29:31;25.00;99.90
4811;DHT22;2419;51.276;6.472;2023-09-07T09:32:00;25.30;99.90
4811;DHT22;2419;51.276;6.472;2023-09-07T09:34:34;25.30;99.90
4811;DHT22;2419;51.276;6.472;2023-09-07T09:37:03;25.50;99.90
4811;DHT22;2419;51.276;6.472;2023-09-07T09:39:31;25.80;99.90
4811;DHT22;2419;51.276;6.472;2023-09-07T09:42:00;25.80;99.90
4811;DHT22;2419;51.276;6.472;2023-09-07T09:44:30;25.60;99.90
4811;DHT22;2419;51.276;6.472;2023-09-07T09:46:59;25.80;99.90
4811;DHT22;2419;51.276;6.472;2023-09-07T09:49:28;25.90;99.40
4811;DHT22;2419;51.276;6.472;2023-09-07T09:51:58;26.00;99.90
4811;DHT22;2419;51.276;6.472;2023-09-07T09:54:28;26.00;99.90
4811;DHT22;2419;51.276;6.472;2023-09-07T09:56:56;26.20;99.90
4811;DHT22;2419;51.276;6.472;2023-09-07T09:59:24;26.10;99.90
4811;DHT22;2419;51.276;6.472;2023-09-07T10:01:53;26.20;99.90
4811;DHT22;2419;51.276;6.472;2023-09-07T10:04:21;26.30;99.90
4811;DHT22;2419;51.276;6.472;2023-09-07T10:06:53;26.50;99.90
4811;DHT22;2419;51.276;6.472;2023-09-07T10:09:23;26.60;99.90
4811;DHT22;2419;51.276;6.472;2023-09-07T10:11:52;26.70;99.00
4811;DHT22;2419;51.276;6.472;2023-09-07T10:14:21;27.10;98.80
4811;DHT22;2419;51.276;6.472;2023-09-07T10:16:51;27.40;98.70
4811;DHT22;2419;51.276;6.472;2023-09-07T10:19:21;28.10;96.80
4811;DHT22;2419;51.276;6.472;2023-09-07T10:21:52;28.70;95.60
4811;DHT22;2419;51.276;6.472;2023-09-07T10:24:25;30.10;93.30
4811;DHT22;2419;51.276;6.472;2023-09-07T10:26:58;30.90;86.00
4811;DHT22;2419;51.276;6.472;2023-09-07T10:29:27;31.10;84.10
4811;DHT22;2419;51.276;6.472;2023-09-07T10:31:55;32.50;75.50
4811;DHT22;2419;51.276;6.472;2023-09-07T10:34:34;33.30;67.40
4811;DHT22;2419;51.276;6.472;2023-09-07T10:37:04;32.70;64.30
4811;DHT22;2419;51.276;6.472;2023-09-07T10:39:35;31.60;67.60
4811;DHT22;2419;51.276;6.472;2023-09-07T10:42:05;31.70;68.80
4811;DHT22;2419;51.276;6.472;2023-09-07T10:44:33;32.00;66.90
4811;DHT22;2419;51.276;6.472;2023-09-07T10:47:04;32.60;67.90
4811;DHT22;2419;51.276;6.472;2023-09-07T10:49:32;32.40;64.40
4811;DHT22;2419;51.276;6.472;2023-09-07T10:52:00;32.90;64.50
4811;DHT22;2419;51.276;6.472;2023-09-07T10:54:28;33.10;63.30
4811;DHT22;2419;51.276;6.472;2023-09-07T10:57:07;32.90;63.60
4811;DHT22;2419;51.276;6.472;2023-09-07T10:59:36;33.30;63.30
4811;DHT22;2419;51.276;6.472;2023-09-07T11:02:05;33.60;63.00
4811;DHT22;2419;51.276;6.472;2023-09-07T11:04:33;33.50;61.40
4811;DHT22;2419;51.276;6.472;2023-09-07T11:07:02;34.20;60.80
4811;DHT22;2419;51.276;6.472;2023-09-07T11:09:31;34.60;59.10
4811;DHT22;2419;51.276;6.472;2023-09-07T11:12:05;34.20;57.80
4811;DHT22;2419;51.276;6.472;2023-09-07T11:14:34;34.80;56.70
4811;DHT22;2419;51.276;6.472;2023-09-07T11:17:03;34.80;57.20
4811;DHT22;2419;51.276;6.472;2023-09-07T11:19:32;34.00;55.70
4811;DHT22;2419;51.276;6.472;2023-09-07T11:22:01;34.10;57.60
4811;DHT22;2419;51.276;6.472;2023-09-07T11:24:31;34.10;57.40
4811;DHT22;2419;51.276;6.472;2023-09-07T11:27:00;34.60;56.90
4811;DHT22;2419;51.276;6.472;2023-09-07T11:29:32;34.30;55.80
4811;DHT22;2419;51.276;6.472;2023-09-07T11:32:07;33.30;57.60
4811;DHT22;2419;51.276;6.472;2023-09-07T11:34:46;33.60;57.10
4811;DHT22;2419;51.276;6.472;2023-09-07T11:37:15;33.10;57.60
4811;DHT22;2419;51.276;6.472;2023-09-07T11:39:44;33.90;56.70
4811;DHT22;2419;51.276;6.472;2023-09-07T11:42:12;33.90;55.70
4811;DHT22;2419;51.276;6.472;2023-09-07T11:44:41;33.90;55.20
4811;DHT22;2419;51.276;6.472;2023-09-07T11:47:09;33.60;57.30
4811;DHT22;2419;51.276;6.472;2023-09-07T11:49:37;33.70;55.60
4811;DHT22;2419;51.276;6.472;2023-09-07T11:52:06;33.30;55.70
4811;DHT22;2419;51.276;6.472;2023-09-07T11:54:34;33.00;55.30
4811;DHT22;2419;51.276;6.472;2023-09-07T11:57:02;33.30;54.50
4811;DHT22;2419;51.276;6.472;2023-09-07T11:59:30;32.70;53.10
4811;DHT22;2419;51.276;6.472;2023-09-07T12:02:15;32.70;56.40
4811;DHT22;2419;51.276;6.472;2023-09-07T12:04:44;32.20;56.90
4811;DHT22;2419;51.276;6.472;2023-09-07T12:07:12;32.20;57.60
4811;DHT22;2419;51.276;6.472;2023-09-07T12:09:40;32.10;57.60
4811;DHT22;2419;51.276;6.472;2023-09-07T12:12:08;32.00;57.80
4811;DHT22;2419;51.276;6.472;2023-09-07T12:14:37;31.70;57.70
4811;DHT22;2419;51.276;6.472;2023-09-07T12:17:05;31.40;58.40
4811;DHT22;2419;51.276;6.472;2023-09-07T12:19:35;31.60;59.60
4811;DHT22;2419;51.276;6.472;2023-09-07T12:22:03;31.90;58.40
4811;DHT22;2419;51.276;6.472;2023-09-07T12:24:31;31.90;59.50
4811;DHT22;2419;51.276;6.472;2023-09-07T12:26:59;32.40;59.90
4811;DHT22;2419;51.276;6.472;2023-09-07T12:29:27;32.90;57.70
4811;DHT22;2419;51.276;6.472;2023-09-07T12:31:56;32.90;57.10
4811;DHT22;2419;51.276;6.472;2023-09-07T12:34:24;32.80;58.50
4811;DHT22;2419;51.276;6.472;2023-09-07T12:36:55;33.30;57.20
4811;DHT22;2419;51.276;6.472;2023-09-07T12:39:23;32.90;58.40
4811;DHT22;2419;51.276;6.472;2023-09-07T12:41:52;33.00;56.70
4811;DHT22;2419;51.276;6.472;2023-09-07T12:44:20;33.10;58.70
4811;DHT22;2419;51.276;6.472;2023-09-07T12:46:48;33.10;56.40
4811;DHT22;2419;51.276;6.472;2023-09-07T12:49:16;33.20;57.40
4811;DHT22;2419;51.276;6.472;2023-09-07T12:51:45;33.30;56.50
4811;DHT22;2419;51.276;6.472;2023-09-07T12:54:15;33.80;56.30
4811;DHT22;2419;51.276;6.472;2023-09-07T12:56:44;33.30;55.40
4811;DHT22;2419;51.276;6.472;2023-09-07T12:59:12;33.00;55.10
4811;DHT22;2419;51.276;6.472;2023-09-07T13:01:41;33.20;56.00
4811;DHT22;2419;51.276;6.472;2023-09-07T13:04:09;32.20;56.30
4811;DHT22;2419;51.276;6.472;2023-09-07T13:06:38;32.00;56.80
4811;DHT22;2419;51.276;6.472;2023-09-07T13:09:06;32.00;57.60
4811;DHT22;2419;51.276;6.472;2023-09-07T13:11:37;32.00;58.90
4811;DHT22;2419;51.276;6.472;2023-09-07T13:14:06;32.50;57.80
4811;DHT22;2419;51.276;6.472;2023-09-07T13:16:38;32.40;58.30
4811;DHT22;2419;51.276;6.472;2023-09-07T13:19:06;32.20;58.60
4811;DHT22;2419;51.276;6.472;2023-09-07T13:21:34;32.00;59.50
4811;DHT22;2419;51.276;6.472;2023-09-07T13:24:03;31.80;58.70
4811;DHT22;2419;51.276;6.472;2023-09-07T13:26:31;31.50;60.30
4811;DHT22;2419;51.276;6.472;2023-09-07T13:29:00;31.00;60.00
4811;DHT22;2419;51.276;6.472;2023-09-07T13:31:29;30.90;61.10
4811;DHT22;2419;51.276;6.472;2023-09-07T13:33:57;31.00;61.60
4811;DHT22;2419;51.276;6.472;2023-09-07T13:36:25;30.80;61.30
4811;DHT22;2419;51.276;6.472;2023-09-07T13:38:53;30.50;60.10
4811;DHT22;2419;51.276;6.472;2023-09-07T13:41:23;30.40;61.20
4811;DHT22;2419;51.276;6.472;2023-09-07T13:43:51;30.50;60.30
4811;DHT22;2419;51.276;6.472;2023-09-07T13:46:22;30.70;59.10
4811;DHT22;2419;51.276;6.472;2023-09-07T13:48:50;30.50;59.90
4811;DHT22;2419;51.276;6.472;2023-09-07T13:51:18;30.30;58.50
4811;DHT22;2419;51.276;6.472;2023-09-07T13:53:46;30.30;60.60
4811;DHT22;2419;51.276;6.472;2023-09-07T13:56:17;30.30;58.90
4811;DHT22;2419;51.276;6.472;2023-09-07T13:58:45;30.60;61.30
4811;DHT22;2419;51.276;6.472;2023-09-07T14:01:13;30.70;60.30
4811;DHT22;2419;51.276;6.472;2023-09-07T14:03:43;30.80;59.50
4811;DHT22;2419;51.276;6.472;2023-09-07T14:06:11;30.90;60.20
4811;DHT22;2419;51.276;6.472;2023-09-07T14:08:39;31.10;63.30
4811;DHT22;2419;51.276;6.472;2023-09-07T14:11:07;31.20;61.60
4811;DHT22;2419;51.276;6.472;2023-09-07T14:13:35;31.20;62.20
4811;DHT22;2419;51.276;6.472;2023-09-07T14:16:04;31.10;60.30
4811;DHT22;2419;51.276;6.472;2023-09-07T14:18:32;30.80;58.90
4811;DHT22;2419;51.276;6.472;2023-09-07T14:21:02;30.70;59.70
4811;DHT22;2419;51.276;6.472;2023-09-07T14:23:30;30.80;59.20
4811;DHT22;2419;51.276;6.472;2023-09-07T14:25:59;30.70;58.20
4811;DHT22;2419;51.276;6.472;2023-09-07T14:28:27;30.70;56.70
4811;DHT22;2419;51.276;6.472;2023-09-07T14:30:55;30.60;58.30
4811;DHT22;2419;51.276;6.472;2023-09-07T14:33:25;30.70;56.40
4811;DHT22;2419;51.276;6.472;2023-09-07T14:35:54;30.60;55.20
4811;DHT22;2419;51.276;6.472;2023-09-07T14:38:23;30.60;56.00
4811;DHT22;2419;51.276;6.472;2023-09-07T14:40:53;30.50;55.40
4811;DHT22;2419;51.276;6.472;2023-09-07T14:43:22;30.60;55.50
4811;DHT22;2419;51.276;6.472;2023-09-07T14:45:50;30.40;57.20
4811;DHT22;2419;51.276;6.472;2023-09-07T14:48:18;30.50;57.80
4811;DHT22;2419;51.276;6.472;2023-09-07T14:50:46;30.50;55.90
4811;DHT22;2419;51.276;6.472;2023-09-07T14:53:14;30.40;55.60
4811;DHT22;2419;51.276;6.472;2023-09-07T14:55:44;30.50;56.90
4811;DHT22;2419;51.276;6.472;2023-09-07T14:58:12;30.70;58.00
4811;DHT22;2419;51.276;6.472;2023-09-07T15:00:40;30.70;57.60
4811;DHT22;2419;51.276;6.472;2023-09-07T15:03:08;30.70;55.80
4811;DHT22;2419;51.276;6.472;2023-09-07T15:05:36;30.50;55.40
4811;DHT22;2419;51.276;6.472;2023-09-07T15:08:04;30.50;56.80
4811;DHT22;2419;51.276;6.472;2023-09-07T15:10:34;30.50;56.40
4811;DHT22;2419;51.276;6.472;2023-09-07T15:13:03;30.50;56.90
4811;DHT22;2419;51.276;6.472;2023-09-07T15:15:33;30.60;57.60
4811;DHT22;2419;51.276;6.472;2023-09-07T15:18:04;30.50;56.10
4811;DHT22;2419;51.276;6.472;2023-09-07T15:20:32;30.50;56.00
4811;DHT22;2419;51.276;6.472;2023-09-07T15:23:00;30.40;57.10
4811;DHT22;2419;51.276;6.472;2023-09-07T15:25:29;30.40;56.10
4811;DHT22;2419;51.276;6.472;2023-09-07T15:27:57;30.40;56.10
4811;DHT22;2419;51.276;6.472;2023-09-07T15:30:27;30.40;56.10
4811;DHT22;2419;51.276;6.472;2023-09-07T15:32:55;30.30;53.90
4811;DHT22;2419;51.276;6.472;2023-09-07T15:35:24;30.30;52.70
4811;DHT22;2419;51.276;6.472;2023-09-07T15:37:52;30.30;53.70
4811;DHT22;2419;51.276;6.472;2023-09-07T15:40:21;30.30;53.00
4811;DHT22;2419;51.276;6.472;2023-09-07T15:42:49;30.30;53.50
4811;DHT22;2419;51.276;6.472;2023-09-07T15:45:18;30.30;54.50
4811;DHT22;2419;51.276;6.472;2023-09-07T15:47:48;30.30;53.70
4811;DHT22;2419;51.276;6.472;2023-09-07T15:50:16;30.20;53.10
4811;DHT22;2419;51.276;6.472;2023-09-07T15:52:46;30.20;52.80
4811;DHT22;2419;51.276;6.472;2023-09-07T15:55:15;30.20;53.10
4811;DHT22;2419;51.276;6.472;2023-09-07T15:57:46;30.10;54.30
4811;DHT22;2419;51.276;6.472;2023-09-07T16:00:17;30.10;54.70
4811;DHT22;2419;51.276;6.472;2023-09-07T16:02:48;30.10;55.00
4811;DHT22;2419;51.276;6.472;2023-09-07T16:05:17;30.00;55.60
4811;DHT22;2419;51.276;6.472;2023-09-07T16:07:45;30.00;54.60
4811;DHT22;2419;51.276;6.472;2023-09-07T16:10:14;29.90;53.90
4811;DHT22;2419;51.276;6.472;2023-09-07T16:12:43;29.90;56.10